LiveATC.Net - Listen to live air traffic control over the Internet!


ICAO: EYKA  IATA: KUN   Airport: Kaunas Airport
City: Kaunas
Country: Lithuania   Continent: Europe
EYKA METAR Weather: EYKA 170350Z 14008KT 2200 -SN BR OVC012 M02/M04 Q1023 R08/490394
EYKA Flight Activity (FlightAware)

EYKA Gnd/Twr/FIS
Feed Status: UP   Listeners: 0
Listen in your browser - HTML5 player (in browser, HTML5)
Listen in your browser - requires Flash (in browser, requires Flash)
Click here to listen with your own player (launches your MP3 player)
EYKA Gnd/Twr/FIS Audio Archives
FacilityFrequency
EYKS (ALEKSOTAS) Info135.500
Kaunas Approach124.200
Kaunas Info124.600
Kaunas Tower118.500

NOTICE

Unauthorized use prohibited. See LiveATC.net Terms of Service


Find LiveATC Audio Streams


Airport/ARTCC Code

Frequency Search
(e.g., 124.400, 128.75)
Site-wide search
 


Browse LiveATC Feeds
Top 50 LiveATC Feeds
Bad Weather Areas

LiveATC FAQ
Offer a LiveATC Feed
Contact LiveATC.net
Press Inquiries

LiveATC on iPhone
LiveATC on Android

Windows Phone
Windows 8/10

LiveATC Mobile
(Mobile browser)

ATC Audio Archives
Interesting Recordings

LiveATC Forums


Home Page
About LiveATC.net
Make a Donation
Terms of Use
Privacy Policy

Canadian Air Freqs

AIRMETs/SIGMETs

FAA Airport Status
Nat'l Airspace Status
Arrival Demand Charts


Server Software By:
Icecast.org
Liquidsoap